Time;durP1;ratioP1;P1;durP2;ratioP2;P2;SDS_P1;SDS_P2;PMS_P1;PMS_P2;Temp;Humidity;BMP_temperature;BMP_pressure;BME280_temperature;BME280_humidity;BME280_pressure;Samples;Min_cycle;Max_cycle;Signal;HPM_P1;HPM_P2
2022/02/23 00:05:48;;;;;;;9.52;2.90;;;6.70;1.00;;;;;;5196456;22;20220;-87
2022/02/23 00:08:21;;;;;;;8.73;3.65;;;6.70;1.00;;;;;;5084097;28;20209;-89
2022/02/23 00:10:56;;;;;;;14.88;3.65;;;6.60;1.00;;;;;;5092516;28;20224;-87
2022/02/23 00:13:23;;;;;;;14.48;4.07;;;6.60;1.00;;;;;;5085211;28;20252;-88
2022/02/23 00:15:50;;;;;;;8.80;3.97;;;6.60;1.00;;;;;;5075392;28;20217;-89
2022/02/23 00:21:03;;;;;;;8.07;3.60;;;6.60;1.00;;;;;;5089170;28;20231;-88
2022/02/23 00:23:32;;;;;;;14.10;3.80;;;6.60;1.00;;;;;;5087802;28;20224;-88
2022/02/23 00:25:59;;;;;;;7.75;3.97;;;6.70;1.00;;;;;;5088203;28;20220;-89
2022/02/23 00:28:27;;;;;;;10.02;3.63;;;6.70;1.00;;;;;;5083554;28;20220;-87
2022/02/23 00:30:56;;;;;;;10.02;4.13;;;6.60;1.00;;;;;;5060617;28;20228;-89
2022/02/23 00:33:23;;;;;;;13.13;4.50;;;6.50;1.00;;;;;;5071894;28;20288;-89
2022/02/23 00:35:52;;;;;;;9.93;4.40;;;6.40;1.00;;;;;;5075730;28;20225;-88
2022/02/23 00:38:20;;;;;;;13.30;3.92;;;6.40;1.00;;;;;;5050428;28;20224;-89
2022/02/23 00:41:07;;;;;;;11.93;3.50;;;6.30;1.00;;;;;;5045139;28;20209;-89
2022/02/23 00:44:32;;;;;;;16.50;3.50;;;6.30;1.00;;;;;;5072267;28;20221;-90
2022/02/23 00:50:25;;;;;;;8.90;2.38;;;6.20;1.00;;;;;;4389761;22;20253;-90
2022/02/23 00:53:32;;;;;;;6.15;1.67;;;6.00;1.00;;;;;;5052151;28;20218;-89
2022/02/23 00:56:04;;;;;;;5.32;1.65;;;5.80;1.00;;;;;;5026803;28;20289;-87
2022/02/23 00:58:37;;;;;;;6.90;1.52;;;5.60;1.00;;;;;;5045810;28;20242;-88
2022/02/23 01:01:10;;;;;;;8.25;2.22;;;5.50;1.00;;;;;;5053013;28;20244;-89
2022/02/23 01:03:37;;;;;;;7.95;1.80;;;5.50;1.00;;;;;;5051742;28;20237;-89
2022/02/23 01:06:13;;;;;;;2.53;1.48;;;5.40;1.00;;;;;;5050471;28;20225;-89
2022/02/23 01:11:58;;;;;;;5.53;1.85;;;5.30;1.00;;;;;;5174971;22;20229;-89
2022/02/23 01:18:06;;;;;;;9.27;2.85;;;5.20;1.00;;;;;;5057367;28;20295;-89
2022/02/23 01:20:40;;;;;;;7.60;2.65;;;5.20;1.00;;;;;;5057634;28;20268;-89
2022/02/23 01:23:22;;;;;;;10.40;2.67;;;5.20;1.00;;;;;;5061961;28;20213;-88
2022/02/23 01:26:18;;;;;;;8.15;2.95;;;5.20;1.00;;;;;;5063176;28;20201;-88
2022/02/23 01:28:46;;;;;;;12.88;3.58;;;5.10;1.00;;;;;;5000562;28;20234;-88
2022/02/23 01:41:28;;;;;;;13.70;4.00;;;5.10;1.00;;;;;;5357380;22;20292;-88
2022/02/23 01:53:05;;;;;;;22.95;5.13;;;5.40;1.00;;;;;;5068930;22;20241;-88
2022/02/23 01:55:32;;;;;;;10.30;4.35;;;5.40;1.00;;;;;;5052332;28;20768;-88
2022/02/23 01:57:59;;;;;;;18.13;3.60;;;5.40;1.00;;;;;;5060369;28;20228;-89
2022/02/23 02:00:27;;;;;;;15.10;4.55;;;5.50;1.00;;;;;;5078860;23;20677;-92
2022/02/23 02:05:35;;;;;;;17.65;4.90;;;5.60;1.00;;;;;;5085054;22;20217;-90
2022/02/23 02:08:25;;;;;;;16.27;4.43;;;5.60;1.00;;;;;;5076998;28;20229;-89
2022/02/23 02:10:54;;;;;;;18.15;4.40;;;5.60;1.00;;;;;;5051400;28;20202;-90
2022/02/23 02:14:14;;;;;;;18.77;4.22;;;5.70;1.00;;;;;;5052865;28;20824;-87
2022/02/23 02:20:08;;;;;;;14.38;4.18;;;5.80;1.00;;;;;;5043690;28;20260;-89
2022/02/23 02:22:37;;;;;;;14.32;4.65;;;5.80;1.00;;;;;;5047352;28;20206;-88
2022/02/23 02:25:05;;;;;;;16.67;4.10;;;5.80;1.00;;;;;;5045232;28;20208;-88
2022/02/23 02:27:33;;;;;;;20.88;4.45;;;5.90;1.00;;;;;;5060882;28;20272;-89
2022/02/23 02:30:00;;;;;;;16.75;4.75;;;5.90;1.00;;;;;;5048576;28;20261;-89
2022/02/23 02:32:27;;;;;;;14.68;4.25;;;5.90;1.00;;;;;;5048964;28;20226;-88
2022/02/23 02:34:54;;;;;;;14.15;4.35;;;5.90;1.00;;;;;;5040351;28;20724;-89
2022/02/23 02:37:21;;;;;;;14.57;4.00;;;5.80;1.00;;;;;;5039995;28;20222;-88
2022/02/23 02:39:50;;;;;;;19.92;4.45;;;5.80;1.00;;;;;;5029875;28;20237;-89
2022/02/23 02:42:20;;;;;;;12.68;4.13;;;5.70;1.00;;;;;;5020684;28;20226;-88
2022/02/23 02:44:47;;;;;;;16.55;4.72;;;5.70;1.00;;;;;;5013739;28;20686;-88
2022/02/23 02:47:14;;;;;;;16.70;5.28;;;5.70;1.00;;;;;;5017139;28;20241;-89
2022/02/23 02:49:42;;;;;;;15.25;3.88;;;5.70;1.00;;;;;;5030825;28;20340;-90
2022/02/23 02:52:18;;;;;;;12.52;3.80;;;5.80;1.00;;;;;;5021810;28;20370;-86
2022/02/23 02:54:56;;;;;;;10.55;3.75;;;5.80;1.00;;;;;;5020055;28;20280;-87
2022/02/23 02:58:41;;;;;;;10.95;3.55;;;5.70;1.00;;;;;;5052791;28;20214;-87
2022/02/23 03:01:09;;;;;;;16.75;3.60;;;5.70;1.00;;;;;;5015271;28;20234;-88
2022/02/23 03:03:36;;;;;;;13.77;4.70;;;5.70;1.00;;;;;;5029611;28;20217;-88
2022/02/23 03:06:04;;;;;;;10.80;3.35;;;5.60;1.00;;;;;;5060951;28;20216;-87
2022/02/23 03:08:31;;;;;;;11.15;4.35;;;5.50;1.00;;;;;;5055027;28;20238;-87
2022/02/23 03:11:03;;;;;;;14.80;4.38;;;5.60;1.00;;;;;;5044642;28;20213;-87
2022/02/23 03:13:30;;;;;;;14.30;3.95;;;5.60;1.00;;;;;;5035052;28;20221;-88
2022/02/23 03:19:54;;;;;;;10.38;3.28;;;5.70;1.00;;;;;;5037645;28;20226;-87
2022/02/23 03:22:28;;;;;;;14.20;4.13;;;5.80;1.00;;;;;;5042313;28;20234;-87
2022/02/23 03:24:55;;;;;;;16.15;4.28;;;5.80;1.00;;;;;;5034122;28;20229;-90
2022/02/23 03:27:23;;;;;;;15.00;4.78;;;5.80;1.00;;;;;;5028800;28;20942;-89
2022/02/23 03:30:30;;;;;;;7.70;2.88;;;5.80;1.00;;;;;;5013349;28;20299;-88
2022/02/23 03:32:58;;;;;;;14.73;3.85;;;5.90;1.00;;;;;;5000724;28;21221;-88
2022/02/23 03:35:27;;;;;;;13.05;4.30;;;5.90;1.00;;;;;;5021268;28;20225;-88
2022/02/23 03:37:55;;;;;;;15.35;3.70;;;5.80;1.00;;;;;;5052702;28;20266;-88
2022/02/23 03:40:22;;;;;;;19.55;4.95;;;5.80;1.00;;;;;;5021737;28;20245;-88
2022/02/23 03:42:51;;;;;;;15.93;3.63;;;5.80;1.00;;;;;;5037637;28;20289;-87
2022/02/23 03:45:18;;;;;;;9.43;3.85;;;5.70;1.00;;;;;;5031464;28;20229;-88
2022/02/23 03:47:46;;;;;;;14.35;5.38;;;5.80;1.00;;;;;;5036327;28;20217;-88
2022/02/23 03:50:14;;;;;;;13.77;3.65;;;5.80;1.00;;;;;;5038542;28;20231;-89
2022/02/23 03:52:42;;;;;;;15.25;4.20;;;5.80;1.00;;;;;;5041197;28;20325;-89
2022/02/23 03:55:10;;;;;;;8.60;3.28;;;5.80;1.00;;;;;;5018986;28;20681;-89
2022/02/23 03:57:37;;;;;;;11.50;3.35;;;5.90;1.00;;;;;;5030392;28;20220;-88
2022/02/23 04:00:08;;;;;;;14.93;3.88;;;5.90;1.00;;;;;;5047614;28;20285;-88
2022/02/23 04:02:35;;;;;;;9.85;3.35;;;5.90;1.00;;;;;;5040236;28;20246;-88
2022/02/23 04:05:03;;;;;;;12.25;3.90;;;5.90;1.00;;;;;;5033282;28;20933;-88
2022/02/23 04:07:30;;;;;;;11.88;3.88;;;5.90;1.00;;;;;;5036454;28;20225;-88
2022/02/23 04:09:57;;;;;;;10.35;4.05;;;5.90;1.00;;;;;;5032211;28;20313;-88
2022/02/23 04:12:24;;;;;;;12.43;3.83;;;5.90;1.00;;;;;;5041245;28;20225;-87
2022/02/23 04:14:51;;;;;;;11.10;4.25;;;6.00;1.00;;;;;;5026946;28;20371;-88
2022/02/23 04:17:20;;;;;;;13.13;3.30;;;6.00;1.00;;;;;;5058366;28;20217;-87
2022/02/23 04:19:47;;;;;;;8.27;3.10;;;5.90;1.00;;;;;;5059451;28;20230;-86
2022/02/23 04:22:14;;;;;;;7.25;1.92;;;5.70;1.00;;;;;;5047278;28;20233;-85
2022/02/23 04:24:46;;;;;;;10.32;2.78;;;5.60;1.00;;;;;;5060046;28;20682;-88
2022/02/23 04:27:12;;;;;;;14.02;2.90;;;5.50;1.00;;;;;;5019640;28;20230;-87
2022/02/23 04:29:39;;;;;;;10.77;2.60;;;5.40;1.00;;;;;;5038716;28;20237;-88
2022/02/23 04:32:07;;;;;;;9.77;2.88;;;5.40;1.00;;;;;;5022287;28;20261;-87
2022/02/23 04:34:36;;;;;;;12.60;2.60;;;5.30;1.00;;;;;;5033033;28;20218;-88
2022/02/23 04:37:03;;;;;;;6.82;2.67;;;5.20;1.00;;;;;;5038556;28;20226;-87
2022/02/23 04:39:30;;;;;;;8.02;2.47;;;5.20;1.00;;;;;;5038027;28;20240;-88
2022/02/23 04:41:57;;;;;;;13.35;3.67;;;5.20;1.00;;;;;;5033732;28;20316;-88
2022/02/23 04:44:23;;;;;;;10.13;4.05;;;5.20;1.00;;;;;;5019541;28;20237;-88
2022/02/23 04:46:50;;;;;;;10.82;4.40;;;5.20;1.00;;;;;;5042368;28;20222;-89
2022/02/23 04:49:17;;;;;;;7.75;2.75;;;5.10;1.00;;;;;;5020529;28;20226;-88
2022/02/23 04:51:46;;;;;;;9.45;3.10;;;5.10;1.00;;;;;;5039951;28;20283;-88
2022/02/23 04:54:13;;;;;;;19.20;3.90;;;5.10;1.00;;;;;;5046028;28;20225;-89
2022/02/23 04:56:39;;;;;;;13.77;3.85;;;5.10;1.00;;;;;;5037951;28;21092;-90
2022/02/23 04:59:08;;;;;;;13.18;3.45;;;5.20;1.00;;;;;;5045835;28;20238;-89
2022/02/23 05:01:37;;;;;;;13.77;4.18;;;5.20;1.00;;;;;;5027498;28;20804;-89
2022/02/23 05:04:07;;;;;;;12.82;3.50;;;5.20;1.00;;;;;;5034518;28;20268;-88
2022/02/23 05:06:34;;;;;;;12.23;5.00;;;5.20;1.00;;;;;;5028225;28;20230;-88
2022/02/23 05:09:05;;;;;;;15.13;4.90;;;5.20;1.00;;;;;;5066810;28;20241;-88
2022/02/23 05:11:33;;;;;;;13.50;4.28;;;5.20;1.00;;;;;;5062919;28;20218;-88
2022/02/23 05:14:00;;;;;;;16.13;5.28;;;5.30;1.00;;;;;;5055205;28;20201;-87
2022/02/23 05:16:27;;;;;;;13.35;4.28;;;5.30;1.00;;;;;;5038799;28;20229;-88
2022/02/23 05:18:55;;;;;;;10.77;4.90;;;5.30;1.00;;;;;;5043659;28;20217;-89
2022/02/23 05:21:22;;;;;;;16.38;5.43;;;5.30;1.00;;;;;;5035798;28;21198;-88
2022/02/23 05:23:49;;;;;;;14.90;4.60;;;5.30;1.00;;;;;;5044430;28;20214;-87
2022/02/23 05:26:17;;;;;;;11.82;4.38;;;5.30;1.00;;;;;;5038000;28;20206;-87
2022/02/23 05:28:44;;;;;;;12.90;4.80;;;5.40;1.00;;;;;;5027342;28;20240;-88
2022/02/23 05:31:11;;;;;;;13.20;4.75;;;5.30;1.00;;;;;;5044363;28;20280;-86
2022/02/23 05:33:40;;;;;;;17.00;4.88;;;5.40;1.00;;;;;;5045891;28;20281;-90
2022/02/23 05:36:08;;;;;;;14.02;5.50;;;5.40;1.00;;;;;;5040154;28;20226;-88
2022/02/23 05:38:35;;;;;;;13.30;4.78;;;5.40;1.00;;;;;;5059252;28;20218;-89
2022/02/23 05:41:03;;;;;;;16.52;4.63;;;5.40;1.00;;;;;;5053725;28;20293;-85
2022/02/23 05:43:32;;;;;;;10.88;5.20;;;5.30;1.00;;;;;;5019929;28;20229;-87
2022/02/23 05:45:59;;;;;;;12.05;3.95;;;5.40;1.00;;;;;;5033529;28;20245;-87
2022/02/23 05:48:26;;;;;;;15.65;5.18;;;5.40;1.00;;;;;;5044526;28;20252;-86
2022/02/23 05:51:51;;;;;;;12.63;4.90;;;5.40;1.00;;;;;;5030036;28;20231;-91
2022/02/23 05:54:18;;;;;;;18.17;5.82;;;5.40;1.00;;;;;;4999778;28;20226;-88
2022/02/23 05:56:45;;;;;;;14.40;4.78;;;5.30;1.00;;;;;;5035571;28;20226;-89
2022/02/23 05:59:14;;;;;;;11.20;4.63;;;5.30;1.00;;;;;;5020966;28;20288;-88
2022/02/23 06:01:41;;;;;;;12.55;4.13;;;5.30;1.00;;;;;;5035167;28;20238;-89
2022/02/23 06:04:10;;;;;;;22.30;5.07;;;5.30;1.00;;;;;;5040211;28;20230;-88
2022/02/23 06:06:37;;;;;;;11.68;4.35;;;5.30;1.00;;;;;;5034033;28;20234;-89
2022/02/23 06:09:07;;;;;;;12.15;4.60;;;5.30;1.00;;;;;;5042320;28;20230;-89
2022/02/23 06:15:23;;;;;;;14.88;5.10;;;5.40;1.00;;;;;;5028746;28;21018;-85
2022/02/23 06:18:14;;;;;;;15.27;5.35;;;5.50;1.00;;;;;;5001605;28;20227;-86
2022/02/23 06:21:02;;;;;;;15.38;4.80;;;5.60;1.00;;;;;;5009297;28;20238;-87
2022/02/23 06:23:51;;;;;;;;;;;;;;;;;;;;;
2022/02/23 06:29:38;;;;;;;13.20;4.75;;;5.70;1.00;;;;;;5217064;22;20229;-87
2022/02/23 06:51:15;;;;;;;16.25;4.57;;;5.90;1.00;;;;;;5667617;22;20210;-86
2022/02/23 06:54:12;;;;;;;13.50;4.32;;;5.90;1.00;;;;;;5047333;28;20254;-89
2022/02/23 06:57:05;;;;;;;16.17;5.30;;;5.90;1.00;;;;;;5011681;28;20237;-84
2022/02/23 06:59:32;;;;;;;10.80;4.60;;;5.90;1.00;;;;;;5019670;28;20231;-84
2022/02/23 07:01:59;;;;;;;19.05;4.82;;;5.90;1.00;;;;;;5028282;28;20234;-85
2022/02/23 07:04:26;;;;;;;16.88;6.57;;;5.90;1.00;;;;;;5033793;28;20350;-83
2022/02/23 07:06:55;;;;;;;12.25;4.47;;;6.00;1.00;;;;;;5028083;28;20261;-82
2022/02/23 07:09:21;;;;;;;16.90;4.40;;;6.00;1.00;;;;;;5004852;28;20227;-85
2022/02/23 07:11:48;;;;;;;12.18;4.10;;;6.00;1.00;;;;;;5018084;28;22270;-82
2022/02/23 07:14:16;;;;;;;11.13;4.60;;;6.00;1.00;;;;;;5014551;28;20736;-82
2022/02/23 07:16:43;;;;;;;16.77;5.55;;;6.10;1.00;;;;;;5014939;28;20241;-84
2022/02/23 07:19:09;;;;;;;16.75;6.05;;;6.10;1.00;;;;;;5015486;28;20238;-83
2022/02/23 07:21:38;;;;;;;8.63;4.25;;;6.10;1.00;;;;;;5016923;28;20293;-84
2022/02/23 07:24:07;;;;;;;12.00;5.07;;;6.10;1.00;;;;;;5016152;28;20219;-84
2022/02/23 07:26:34;;;;;;;23.95;5.88;;;6.10;1.00;;;;;;5011182;28;20222;-82
2022/02/23 07:29:01;;;;;;;17.00;5.22;;;6.20;1.00;;;;;;4996076;28;20239;-83
2022/02/23 07:31:28;;;;;;;13.43;6.35;;;6.20;1.00;;;;;;5014617;28;20234;-82
2022/02/23 07:33:55;;;;;;;13.38;4.32;;;6.20;1.00;;;;;;5029122;28;20217;-83
2022/02/23 07:36:23;;;;;;;11.68;4.07;;;6.20;1.00;;;;;;5025076;28;20630;-84
2022/02/23 07:38:51;;;;;;;10.98;4.40;;;6.30;1.00;;;;;;5025929;28;20245;-82
2022/02/23 07:41:23;;;;;;;13.65;4.88;;;6.30;1.00;;;;;;5014457;28;20238;-84
2022/02/23 07:43:50;;;;;;;18.42;5.47;;;6.40;1.00;;;;;;4992531;28;20234;-83
2022/02/23 07:46:18;;;;;;;11.73;4.20;;;6.50;1.00;;;;;;5014906;28;21394;-84
2022/02/23 07:48:47;;;;;;;11.65;4.43;;;6.60;1.00;;;;;;5017514;28;20234;-83
2022/02/23 07:51:14;;;;;;;15.83;4.93;;;6.60;1.00;;;;;;5014291;28;20218;-84
2022/02/23 07:53:41;;;;;;;15.13;4.13;;;6.70;1.00;;;;;;5016879;28;20417;-82
2022/02/23 07:56:11;;;;;;;14.43;5.10;;;6.80;1.00;;;;;;5013508;28;20226;-83
2022/02/23 07:58:39;;;;;;;15.98;5.18;;;6.90;1.00;;;;;;5011297;28;20918;-83
2022/02/23 08:01:07;;;;;;;13.45;5.47;;;7.00;1.00;;;;;;5013163;28;20989;-85
2022/02/23 08:03:36;;;;;;;9.75;4.30;;;7.10;1.00;;;;;;5011850;28;20302;-85
2022/02/23 08:06:03;;;;;;;14.02;4.57;;;7.20;1.00;;;;;;5014595;28;20227;-84
2022/02/23 08:08:30;;;;;;;14.23;3.78;;;7.30;1.00;;;;;;5015276;28;20981;-85
2022/02/23 08:10:57;;;;;;;11.23;4.45;;;7.40;1.00;;;;;;5022630;28;21257;-83
2022/02/23 08:13:24;;;;;;;14.57;4.82;;;7.60;1.00;;;;;;5017235;28;20302;-84
2022/02/23 08:21:52;;;;;;;7.65;4.30;;;7.90;1.00;;;;;;4949988;28;20268;-82
2022/02/23 08:24:20;;;;;;;15.27;4.20;;;8.00;1.00;;;;;;5005987;28;20258;-83
2022/02/23 08:26:48;;;;;;;10.40;3.25;;;8.00;1.00;;;;;;5021067;28;20215;-83
2022/02/23 08:29:34;;;;;;;13.15;3.92;;;7.90;1.00;;;;;;5019544;28;20239;-84
2022/02/23 08:32:08;;;;;;;16.00;5.53;;;7.90;1.00;;;;;;5020314;28;20240;-84
2022/02/23 08:34:38;;;;;;;14.35;4.05;;;7.80;1.00;;;;;;4999801;28;20231;-83
2022/02/23 08:37:06;;;;;;;21.15;4.38;;;8.00;1.00;;;;;;5012298;28;20402;-84
2022/02/23 08:39:40;;;;;;;9.95;4.30;;;8.00;1.00;;;;;;5022138;28;20234;-84
2022/02/23 08:42:10;;;;;;;13.90;5.10;;;8.10;1.00;;;;;;5027212;28;20285;-83
2022/02/23 08:44:37;;;;;;;13.18;3.60;;;8.20;1.00;;;;;;5033976;28;21108;-83
2022/02/23 08:47:10;;;;;;;14.38;4.55;;;8.30;1.00;;;;;;5031576;28;20906;-83
2022/02/23 08:49:42;;;;;;;10.27;4.20;;;8.40;1.00;;;;;;5032347;28;20675;-82
2022/02/23 08:52:20;;;;;;;10.90;3.90;;;8.90;1.00;;;;;;5025309;28;20250;-82
2022/02/23 08:54:47;;;;;;;12.67;4.30;;;9.60;1.00;;;;;;5026290;28;21084;-82
2022/02/23 08:57:16;;;;;;;10.27;3.77;;;10.10;1.00;;;;;;5032264;28;20485;-82
2022/02/23 08:59:43;;;;;;;11.70;4.23;;;10.50;1.00;;;;;;5033793;28;20468;-81
2022/02/23 09:02:11;;;;;;;11.00;3.97;;;11.00;1.00;;;;;;5034727;28;20480;-83
2022/02/23 09:04:38;;;;;;;8.70;3.10;;;11.50;1.00;;;;;;5016244;28;20545;-83
2022/02/23 09:07:05;;;;;;;12.90;4.53;;;12.50;1.00;;;;;;5020823;28;21171;-83
2022/02/23 09:09:32;;;;;;;14.90;4.17;;;13.40;1.00;;;;;;5021144;28;20453;-82
2022/02/23 09:11:59;;;;;;;8.17;3.43;;;13.80;1.00;;;;;;5017083;28;20460;-82
2022/02/23 09:14:25;;;;;;;14.17;3.83;;;13.60;1.00;;;;;;5016095;28;20488;-82
2022/02/23 09:16:52;;;;;;;8.40;3.33;;;13.40;1.00;;;;;;5020500;28;20486;-81
2022/02/23 09:19:20;;;;;;;12.43;4.00;;;13.60;1.00;;;;;;5029289;28;20421;-82
2022/02/23 09:21:47;;;;;;;9.43;2.97;;;13.80;1.00;;;;;;5052167;28;20422;-85
2022/02/23 09:24:13;;;;;;;10.10;3.60;;;14.60;1.00;;;;;;5048539;28;20434;-81
2022/02/23 09:26:40;;;;;;;8.93;4.03;;;14.80;1.00;;;;;;5046958;28;20442;-82
2022/02/23 09:29:07;;;;;;;14.23;3.80;;;14.00;1.00;;;;;;5016527;28;20431;-83
2022/02/23 09:31:36;;;;;;;10.47;3.10;;;13.20;1.00;;;;;;5034863;28;20419;-80
2022/02/23 09:34:03;;;;;;;11.43;4.00;;;12.90;1.00;;;;;;5016778;28;20454;-81
2022/02/23 09:36:33;;;;;;;11.03;3.83;;;12.50;1.00;;;;;;5024375;28;20437;-79
2022/02/23 09:39:26;;;;;;;9.83;3.70;;;11.70;1.00;;;;;;5027822;28;20430;-80
2022/02/23 09:41:56;;;;;;;12.30;3.40;;;10.70;1.00;;;;;;5046683;28;20492;-83
2022/02/23 09:44:25;;;;;;;11.00;2.97;;;10.20;1.00;;;;;;5023577;28;20480;-83
2022/02/23 09:46:53;;;;;;;10.07;3.67;;;10.00;1.00;;;;;;5026897;28;20485;-82
2022/02/23 09:49:20;;;;;;;11.00;4.50;;;9.80;1.00;;;;;;5013463;28;20477;-81
2022/02/23 09:51:49;;;;;;;10.57;5.50;;;10.10;1.00;;;;;;5041213;28;20398;-79
2022/02/23 09:54:16;;;;;;;14.10;4.20;;;10.30;1.00;;;;;;5039539;28;20424;-79
2022/02/23 09:56:45;;;;;;;13.25;4.00;;;10.20;1.00;;;;;;5022747;28;20414;-80
2022/02/23 09:59:13;;;;;;;13.13;3.40;;;9.90;1.00;;;;;;5039813;28;20229;-81
2022/02/23 10:01:41;;;;;;;14.10;4.57;;;10.10;1.00;;;;;;5035071;28;20418;-79
2022/02/23 10:04:08;;;;;;;10.57;3.23;;;10.60;1.00;;;;;;5013876;28;20460;-80
2022/02/23 10:06:36;;;;;;;12.50;3.37;;;11.20;1.00;;;;;;5004796;28;21279;-81
2022/02/23 10:09:06;;;;;;;11.27;3.37;;;11.70;1.00;;;;;;5010051;28;20468;-81
2022/02/23 10:11:34;;;;;;;10.67;3.73;;;11.50;1.00;;;;;;5015807;28;20462;-80
2022/02/23 10:14:02;;;;;;;10.83;4.13;;;11.80;1.00;;;;;;5013588;28;21670;-82
2022/02/23 10:16:32;;;;;;;6.50;3.10;;;12.70;1.00;;;;;;5014204;28;20513;-81
2022/02/23 10:19:10;;;;;;;7.90;3.37;;;13.10;1.00;;;;;;5014681;28;20445;-81
2022/02/23 10:21:48;;;;;;;11.70;3.93;;;13.10;1.00;;;;;;4995177;28;20858;-82
2022/02/23 10:24:27;;;;;;;9.53;3.20;;;12.80;1.00;;;;;;4995511;28;20446;-81
2022/02/23 10:26:59;;;;;;;10.73;3.37;;;12.30;1.00;;;;;;5017760;28;20556;-83
2022/02/23 10:29:32;;;;;;;9.77;3.40;;;12.30;1.00;;;;;;5009269;28;21479;-81
2022/02/23 10:32:01;;;;;;;8.33;3.23;;;12.50;1.00;;;;;;5019554;28;20480;-81
2022/02/23 10:34:28;;;;;;;10.20;3.50;;;12.40;1.00;;;;;;5024898;28;20449;-83
2022/02/23 10:37:02;;;;;;;11.23;3.40;;;12.40;1.00;;;;;;5023678;28;20409;-83
2022/02/23 10:39:42;;;;;;;11.73;4.10;;;12.50;1.00;;;;;;5018981;28;20422;-83
2022/02/23 10:42:12;;;;;;;9.80;3.30;;;12.70;1.00;;;;;;5012560;28;20742;-82
2022/02/23 10:44:44;;;;;;;9.13;3.60;;;12.10;1.00;;;;;;5015561;28;20513;-81
2022/02/23 10:47:23;;;;;;;6.53;3.60;;;11.50;1.00;;;;;;5009807;28;20453;-83
2022/02/23 10:50:03;;;;;;;9.43;3.10;;;11.70;1.00;;;;;;4996841;28;20522;-83
2022/02/23 10:52:31;;;;;;;15.63;4.07;;;12.20;1.00;;;;;;5017196;28;20441;-84
2022/02/23 10:55:17;;;;;;;10.37;3.30;;;12.30;1.00;;;;;;5008737;28;21067;-85
2022/02/23 10:57:45;;;;;;;10.73;3.70;;;12.30;1.00;;;;;;5013446;28;20441;-84
2022/02/23 11:00:14;;;;;;;10.30;3.43;;;12.60;1.00;;;;;;5010538;28;20442;-85
2022/02/23 11:02:41;;;;;;;8.60;3.37;;;12.90;1.00;;;;;;5014523;28;21011;-83
2022/02/23 11:05:08;;;;;;;11.00;3.90;;;13.70;1.00;;;;;;5015762;28;21156;-83
2022/02/23 11:07:35;;;;;;;8.93;3.37;;;14.10;1.00;;;;;;5013894;28;21319;-83
2022/02/23 11:10:02;;;;;;;10.07;3.00;;;14.30;1.00;;;;;;4995519;28;20452;-82
2022/02/23 11:12:33;;;;;;;7.77;3.20;;;14.80;1.00;;;;;;5016159;28;20418;-81
2022/02/23 11:14:59;;;;;;;6.37;2.80;;;15.50;1.00;;;;;;5014799;28;20445;-83
2022/02/23 11:17:27;;;;;;;8.60;3.93;;;15.60;1.00;;;;;;5013665;28;20410;-86
2022/02/23 11:19:56;;;;;;;9.87;3.10;;;15.20;1.00;;;;;;5021398;28;20419;-88
2022/02/23 11:22:23;;;;;;;8.03;3.57;;;15.00;1.00;;;;;;5020195;28;20488;-87
2022/02/23 11:24:52;;;;;;;5.37;2.50;;;14.90;1.00;;;;;;5027117;28;20450;-84
2022/02/23 11:27:27;;;;;;;13.37;4.70;;;14.40;1.00;;;;;;5018481;28;20445;-86
2022/02/23 11:30:05;;;;;;;5.80;3.40;;;14.00;1.00;;;;;;5025130;28;21325;-91
2022/02/23 11:32:33;;;;;;;8.53;3.40;;;14.50;1.00;;;;;;5031557;28;20399;-88
2022/02/23 11:35:00;;;;;;;10.20;3.90;;;15.20;1.00;;;;;;4995023;28;20529;-87
2022/02/23 11:37:33;;;;;;;6.93;3.43;;;15.20;1.00;;;;;;5021385;28;20583;-86
2022/02/23 11:40:00;;;;;;;8.30;3.57;;;16.30;1.00;;;;;;5007142;28;20436;-86
2022/02/23 11:42:27;;;;;;;7.43;3.20;;;17.90;1.00;;;;;;5007039;28;21387;-81
2022/02/23 11:45:09;;;;;;;7.47;3.23;;;18.60;1.00;;;;;;5006851;28;20449;-82
2022/02/23 11:48:04;;;;;;;6.77;3.13;;;18.10;1.00;;;;;;5019323;28;20455;-83
2022/02/23 11:50:31;;;;;;;9.77;3.30;;;17.00;1.00;;;;;;5013109;28;20448;-81
2022/02/23 11:53:35;;;;;;;8.57;3.40;;;15.60;1.00;;;;;;5018688;28;20434;-81
2022/02/23 11:58:57;;;;;;;9.00;3.13;;;14.40;1.00;;;;;;5015607;28;20442;-81
2022/02/23 12:01:25;;;;;;;9.40;3.27;;;14.60;1.00;;;;;;5016439;28;22079;-82
2022/02/23 12:04:12;;;;;;;7.00;2.77;;;13.60;1.00;;;;;;5027236;28;20461;-84
2022/02/23 12:07:12;;;;;;;12.10;4.17;;;12.60;1.00;;;;;;5032552;28;20480;-81
2022/02/23 12:10:07;;;;;;;8.63;3.27;;;11.90;1.00;;;;;;5044479;28;20411;-81
2022/02/23 12:12:53;;;;;;;7.07;2.80;;;11.30;1.00;;;;;;5029687;28;20430;-81
2022/02/23 12:15:31;;;;;;;8.87;4.30;;;10.90;1.00;;;;;;5042558;28;20411;-81
2022/02/23 12:18:01;;;;;;;11.20;3.80;;;10.90;1.00;;;;;;5016426;28;20636;-83
2022/02/23 12:20:51;;;;;;;8.20;3.00;;;12.90;1.00;;;;;;5018449;28;20469;-82
2022/02/23 12:23:44;;;;;;;8.67;3.57;;;14.10;1.00;;;;;;5014050;28;20448;-85
2022/02/23 12:26:39;;;;;;;9.53;2.80;;;15.60;1.00;;;;;;5014674;28;20454;-87
2022/02/23 12:29:28;;;;;;;11.00;3.00;;;16.30;1.00;;;;;;5019775;28;20690;-87
2022/02/23 12:32:09;;;;;;;8.10;3.37;;;18.20;1.00;;;;;;4993329;28;20464;-89
2022/02/23 12:38:32;;;;;;;7.77;2.23;;;21.00;1.00;;;;;;4889903;28;20406;-84
2022/02/23 12:41:03;;;;;;;10.60;3.20;;;22.90;1.00;;;;;;4970912;28;20476;-85
2022/02/23 12:52:59;;;;;;;5.67;2.47;;;22.00;1.00;;;;;;5018447;28;20567;-88
2022/02/23 12:59:30;;;;;;;7.10;3.17;;;20.00;1.00;;;;;;4973697;28;20448;-88
2022/02/23 13:02:34;;;;;;;6.23;3.10;;;18.20;1.00;;;;;;4982991;28;20500;-87
2022/02/23 13:05:27;;;;;;;9.37;4.37;;;18.60;1.00;;;;;;5013525;28;20482;-87
2022/02/23 13:08:18;;;;;;;6.33;3.03;;;19.30;1.00;;;;;;5013908;28;20821;-87
2022/02/23 13:14:19;;;;;;;8.27;3.30;;;18.70;1.00;;;;;;5017402;28;20458;-87
2022/02/23 13:17:18;;;;;;;10.33;4.13;;;19.60;1.00;;;;;;4991483;28;20640;-88
2022/02/23 13:25:31;;;;;;;6.57;2.40;;;19.20;1.00;;;;;;1440517;26;20572;-87
2022/02/23 13:28:20;;;;;;;6.87;3.03;;;19.00;1.00;;;;;;5022440;28;20454;-89
2022/02/23 13:38:40;;;;;;;6.60;3.40;;;17.50;1.00;;;;;;4989726;28;20473;-90
2022/02/23 13:45:04;;;;;;;9.37;3.40;;;13.30;1.00;;;;;;4958756;28;20461;-89
2022/02/23 13:57:37;;;;;;;8.50;3.57;;;11.60;1.00;;;;;;5034813;28;20550;-89
2022/02/23 14:00:08;;;;;;;10.13;2.80;;;11.50;1.00;;;;;;5048863;28;20452;-86
2022/02/23 14:02:35;;;;;;;8.63;3.93;;;11.50;1.00;;;;;;5056287;28;20451;-86
2022/02/23 14:05:09;;;;;;;7.07;3.20;;;11.40;1.00;;;;;;5041695;28;20544;-85
2022/02/23 14:07:36;;;;;;;7.73;3.37;;;11.40;1.00;;;;;;5056353;28;20459;-83
2022/02/23 14:10:05;;;;;;;7.00;3.77;;;11.20;1.00;;;;;;5049700;28;20447;-81
2022/02/23 14:12:36;;;;;;;10.57;4.77;;;11.20;1.00;;;;;;5046867;28;20468;-84
2022/02/23 14:15:05;;;;;;;8.03;4.17;;;11.30;1.00;;;;;;5034891;28;20421;-83
2022/02/23 14:17:32;;;;;;;9.90;4.17;;;11.20;1.00;;;;;;5056121;28;20488;-83
2022/02/23 14:20:13;;;;;;;7.30;3.70;;;11.10;1.00;;;;;;5056534;28;20522;-82
2022/02/23 14:22:41;;;;;;;11.13;5.30;;;11.10;1.00;;;;;;5037496;28;20502;-82
2022/02/23 14:25:10;;;;;;;7.37;3.70;;;11.10;1.00;;;;;;5054973;28;20998;-82
2022/02/23 14:27:41;;;;;;;10.67;4.47;;;11.10;1.00;;;;;;5056745;28;20967;-83
2022/02/23 14:30:17;;;;;;;8.03;3.47;;;11.00;1.00;;;;;;5047091;28;20483;-83
2022/02/23 14:32:44;;;;;;;7.60;3.40;;;10.90;1.00;;;;;;5060832;28;21167;-83
2022/02/23 14:35:15;;;;;;;6.87;3.40;;;10.90;1.00;;;;;;5074027;28;20486;-81
2022/02/23 14:37:46;;;;;;;9.03;3.87;;;10.90;1.00;;;;;;5051145;28;20519;-81
2022/02/23 14:40:15;;;;;;;10.00;3.43;;;10.90;1.00;;;;;;5052644;28;20412;-83
2022/02/23 14:42:44;;;;;;;7.63;3.90;;;10.80;1.00;;;;;;5048723;28;20466;-82
2022/02/23 14:45:12;;;;;;;8.90;3.60;;;10.90;1.00;;;;;;5065491;28;20415;-84
2022/02/23 14:47:39;;;;;;;8.27;2.87;;;11.10;1.00;;;;;;5046112;28;20538;-85
2022/02/23 14:50:10;;;;;;;8.73;3.23;;;11.20;1.00;;;;;;5054884;28;20556;-85
2022/02/23 14:52:39;;;;;;;9.43;3.63;;;11.00;1.00;;;;;;5054452;28;20464;-84
2022/02/23 14:55:08;;;;;;;7.43;4.30;;;10.80;1.00;;;;;;5060666;28;20480;-85
2022/02/23 14:57:35;;;;;;;8.13;3.23;;;10.70;1.00;;;;;;5061155;28;20419;-83
2022/02/23 15:00:06;;;;;;;10.80;4.80;;;10.60;1.00;;;;;;5054908;28;21422;-83
2022/02/23 15:02:33;;;;;;;11.87;3.60;;;10.60;1.00;;;;;;5044195;28;20404;-83
2022/02/23 15:05:00;;;;;;;7.63;3.23;;;10.60;1.00;;;;;;5055275;28;21894;-83
2022/02/23 15:07:27;;;;;;;8.87;3.10;;;10.50;1.00;;;;;;5049232;28;20471;-84
2022/02/23 15:09:53;;;;;;;8.90;4.60;;;10.60;1.00;;;;;;5037925;28;20518;-85
2022/02/23 15:12:20;;;;;;;12.10;3.70;;;10.60;1.00;;;;;;5041079;28;20470;-85
2022/02/23 15:14:47;;;;;;;9.30;3.37;;;10.70;1.00;;;;;;5053654;28;21465;-84
2022/02/23 15:17:15;;;;;;;10.57;3.67;;;10.80;1.00;;;;;;5054595;28;20944;-84
2022/02/23 15:19:41;;;;;;;13.50;3.40;;;10.80;1.00;;;;;;5053355;28;20997;-82
2022/02/23 15:22:08;;;;;;;9.93;3.17;;;10.70;1.00;;;;;;5061060;28;20479;-84
2022/02/23 15:24:36;;;;;;;5.87;3.50;;;10.70;1.00;;;;;;5047608;28;20456;-84
2022/02/23 15:27:03;;;;;;;7.70;2.60;;;10.60;1.00;;;;;;5060394;28;20432;-84
2022/02/23 15:29:30;;;;;;;6.57;3.00;;;10.60;1.00;;;;;;5067138;28;21214;-84
2022/02/23 15:31:57;;;;;;;9.10;3.60;;;10.60;1.00;;;;;;5051643;28;20994;-84